Time;durP1;ratioP1;P1;durP2;ratioP2;P2;SDS_P1;SDS_P2;PMS_P1;PMS_P2;Temp;Humidity;BMP_temperature;BMP_pressure;BME280_temperature;BME280_humidity;BME280_pressure;Samples;Min_cycle;Max_cycle;Signal;HPM_P1;HPM_P2
2023/09/25 05:42:21;;;;;;;;;5.75;5.75;;;;;21.82;46.19;101633.84;5092531;27;45380;-58
2023/09/25 05:44:47;;;;;;;;;5.50;5.50;;;;;22.29;45.01;101651.94;5073921;28;45365;-56
2023/09/25 05:47:12;;;;;;;;;4.00;4.00;;;;;22.54;44.14;101659.03;5075093;27;45374;-57
2023/09/25 05:49:38;;;;;;;;;6.00;4.00;;;;;22.50;44.13;101658.41;5074869;28;45247;-58
2023/09/25 05:52:03;;;;;;;;;7.75;4.00;;;;;22.60;43.79;101664.00;5075029;27;45861;-55
2023/09/25 05:54:32;;;;;;;;;5.00;5.00;;;;;22.78;43.58;101664.38;5085517;27;45510;-54
2023/09/25 05:56:57;;;;;;;;;4.00;4.00;;;;;23.04;43.23;101662.22;5075844;27;45255;-56
2023/09/25 05:59:23;;;;;;;;;6.75;4.00;;;;;23.28;42.52;101677.44;5074055;28;50617;-56
2023/09/25 06:01:48;;;;;;;;;5.25;5.00;;;;;23.35;42.37;101653.16;5073394;27;46044;-60
2023/09/25 06:04:15;;;;;;;;;5.75;5.75;;;;;23.60;41.63;101666.50;5066274;27;45723;-60
2023/09/25 06:06:41;;;;;;;;;7.75;5.25;;;;;23.67;41.96;101675.91;5070969;28;45280;-59
2023/09/25 06:09:08;;;;;;;;;6.00;6.00;;;;;23.74;41.52;101665.28;5074059;27;45326;-60
2023/09/25 06:11:38;;;;;;;;;5.00;5.00;;;;;23.91;41.61;101667.44;5070810;27;46964;-56
2023/09/25 06:14:04;;;;;;;;;5.75;5.75;;;;;23.93;41.13;101672.78;5072469;27;45387;-54
2023/09/25 06:16:30;;;;;;;;;4.00;4.00;;;;;23.98;40.92;101673.28;5072183;27;45379;-57
2023/09/25 06:18:55;;;;;;;;;5.00;5.00;;;;;24.05;40.58;101685.41;5074496;27;45282;-57
2023/09/25 06:21:20;;;;;;;;;4.00;4.00;;;;;24.06;40.48;101685.28;5074137;27;46056;-55
2023/09/25 06:23:47;;;;;;;;;6.00;6.00;;;;;24.12;40.38;101672.91;5072842;27;51762;-57
2023/09/25 06:26:12;;;;;;;;;7.00;6.25;;;;;24.11;40.41;101676.66;5069597;27;45758;-55
2023/09/25 06:28:38;;;;;;;;;5.75;4.00;;;;;24.11;40.33;101672.03;5073835;28;45686;-57
2023/09/25 06:31:03;;;;;;;;;6.00;4.25;;;;;24.08;40.50;101675.03;5073830;28;45404;-55
2023/09/25 06:33:29;;;;;;;;;6.75;4.25;;;;;24.17;40.36;101680.72;5072940;28;57042;-56
2023/09/25 06:35:55;;;;;;;;;5.00;3.75;;;;;24.25;40.22;101667.25;5071884;27;45576;-57
2023/09/25 06:38:20;;;;;;;;;5.50;4.75;;;;;24.28;39.89;101677.94;5074259;27;45244;-56
2023/09/25 06:40:46;;;;;;;;;5.00;4.00;;;;;24.28;40.29;101670.59;5073807;27;46032;-56
2023/09/25 06:43:12;;;;;;;;;4.00;4.00;;;;;24.40;40.02;101675.00;5060605;28;45442;-56
2023/09/25 06:45:38;;;;;;;;;5.00;4.50;;;;;24.41;39.22;101676.69;5060340;28;45707;-55
2023/09/25 06:48:04;;;;;;;;;5.00;5.00;;;;;24.36;39.92;101678.13;5059703;28;45406;-58
2023/09/25 06:50:30;;;;;;;;;2.00;2.00;;;;;24.41;39.88;101676.69;5060435;28;45359;-56
2023/09/25 06:52:56;;;;;;;;;6.00;5.00;;;;;24.44;39.50;101681.03;5060751;28;45437;-57
2023/09/25 06:55:21;;;;;;;;;5.00;4.00;;;;;24.45;39.33;101680.91;5060638;28;45410;-56
2023/09/25 06:57:46;;;;;;;;;7.25;4.25;;;;;24.52;38.92;101679.34;5060555;28;46333;-56
2023/09/25 07:00:13;;;;;;;;;6.00;5.00;;;;;24.61;39.09;101687.75;5060221;28;45351;-57
2023/09/25 07:02:39;;;;;;;;;5.50;5.50;;;;;24.64;38.87;101680.13;5060384;28;45258;-56
2023/09/25 07:05:04;;;;;;;;;4.25;4.00;;;;;24.69;38.48;101694.28;5060478;28;50608;-57
2023/09/25 07:07:30;;;;;;;;;4.25;4.25;;;;;24.61;39.08;101694.09;5060755;28;45211;-56
2023/09/25 07:09:56;;;;;;;;;6.50;5.00;;;;;24.68;39.12;101697.16;5060973;28;45351;-57
2023/09/25 07:12:22;;;;;;;;;2.25;2.25;;;;;24.78;38.89;101700.81;5061019;28;45246;-56
2023/09/25 07:14:56;;;;;;;;;6.00;5.00;;;;;24.83;38.92;101704.91;5060925;28;46225;-58
2023/09/25 07:17:22;;;;;;;;;4.00;4.00;;;;;24.92;38.46;101702.34;5060070;28;45504;-55
2023/09/25 07:19:52;;;;;;;;;6.00;5.00;;;;;25.20;38.28;101702.41;5060318;28;45366;-58
2023/09/25 07:22:20;;;;;;;;;5.00;4.75;;;;;25.27;37.94;101700.81;5059243;28;45374;-57
2023/09/25 07:24:45;;;;;;;;;5.50;4.25;;;;;25.26;37.98;101704.56;5060392;28;45326;-57
2023/09/25 07:27:11;;;;;;;;;4.00;3.50;;;;;25.38;37.45;101698.97;5052430;28;45330;-56
2023/09/25 07:29:37;;;;;;;;;4.50;4.00;;;;;25.52;37.40;101707.63;5060068;28;45603;-56
2023/09/25 07:32:02;;;;;;;;;4.50;4.50;;;;;25.50;37.41;101700.56;5060193;28;45383;-57
2023/09/25 07:34:29;;;;;;;;;4.00;4.00;;;;;25.48;37.31;101694.34;5047714;28;45444;-55
2023/09/25 07:36:54;;;;;;;;;4.50;4.50;;;;;25.55;37.34;101703.75;5059892;28;45403;-56
2023/09/25 07:39:22;;;;;;;;;5.00;5.00;;;;;25.38;36.98;101694.34;5060060;28;45398;-57
2023/09/25 07:41:48;;;;;;;;;4.25;4.25;;;;;25.48;37.26;101705.34;5047200;28;45364;-57
2023/09/25 07:44:13;;;;;;;;;5.00;5.00;;;;;25.40;37.51;101695.06;5060388;28;45428;-57
2023/09/25 07:46:39;;;;;;;;;6.50;6.50;;;;;25.42;37.50;101708.66;5055223;28;56724;-57
2023/09/25 07:49:05;;;;;;;;;5.75;4.75;;;;;25.55;37.06;101715.59;5059329;28;46958;-57
2023/09/25 07:51:32;;;;;;;;;4.50;4.50;;;;;25.58;37.15;101714.44;5060628;28;45209;-55
2023/09/25 07:53:58;;;;;;;;;5.50;4.00;;;;;25.67;37.50;101713.63;5059273;28;45250;-57
2023/09/25 07:56:24;;;;;;;;;5.00;4.75;;;;;25.72;37.00;101703.06;5060249;28;45492;-57
2023/09/25 07:58:49;;;;;;;;;2.00;2.00;;;;;25.76;37.29;101703.66;5059839;28;45319;-55
2023/09/25 08:01:15;;;;;;;;;5.25;5.25;;;;;25.75;37.16;101700.03;5059295;28;53719;-57
2023/09/25 08:03:40;;;;;;;;;4.00;4.00;;;;;25.90;36.90;101703.19;5060305;28;45357;-56
2023/09/25 08:06:06;;;;;;;;;6.25;6.25;;;;;25.94;36.94;101702.78;5060067;28;45378;-57
2023/09/25 08:08:35;;;;;;;;;6.00;4.75;;;;;26.15;36.83;101704.44;5059438;28;45764;-54
2023/09/25 08:11:00;;;;;;;;;4.75;4.75;;;;;26.10;36.96;101704.91;5045551;28;45745;-58
2023/09/25 08:13:26;;;;;;;;;8.50;5.50;;;;;26.17;36.56;101705.19;5059018;28;45356;-56
2023/09/25 08:15:51;;;;;;;;;7.50;6.00;;;;;26.43;36.77;101697.19;5059570;28;45185;-56
2023/09/25 08:18:16;;;;;;;;;7.50;6.25;;;;;26.58;36.50;101715.78;5059064;28;48909;-57
2023/09/25 08:20:42;;;;;;;;;4.75;4.75;;;;;26.69;36.17;101715.63;5059713;28;45245;-58
2023/09/25 08:23:09;;;;;;;;;5.75;5.75;;;;;26.81;35.67;101720.91;5059962;28;45244;-57
2023/09/25 08:25:35;;;;;;;;;6.75;5.25;;;;;26.81;35.41;101709.91;5059614;28;45536;-57
2023/09/25 08:28:00;;;;;;;;;7.75;6.25;;;;;26.88;35.89;101711.88;5059564;28;45390;-57
2023/09/25 08:30:26;;;;;;;;;6.25;6.25;;;;;26.99;35.62;101708.97;5059575;28;45305;-58
2023/09/25 08:32:52;;;;;;;;;6.75;5.00;;;;;27.09;35.74;101712.53;5075068;28;45326;-57
2023/09/25 08:35:17;;;;;;;;;4.00;3.00;;;;;27.19;35.36;101712.47;5059570;28;45343;-57
2023/09/25 08:37:43;;;;;;;;;5.50;4.50;;;;;27.25;35.64;101711.84;5059175;28;46309;-58
2023/09/25 08:40:09;;;;;;;;;4.75;4.75;;;;;27.37;35.61;101701.50;5058767;28;45509;-57
2023/09/25 08:42:35;;;;;;;;;3.75;3.75;;;;;27.49;35.65;101694.72;5059210;28;45370;-57
2023/09/25 08:45:02;;;;;;;;;5.00;5.00;;;;;27.72;34.79;101687.75;5059053;28;45563;-57
2023/09/25 08:47:30;;;;;;;;;3.50;3.50;;;;;27.69;34.43;101693.56;5058795;28;47164;-58
2023/09/25 08:49:55;;;;;;;;;4.50;4.50;;;;;27.81;34.97;101688.69;5058683;28;45326;-58
2023/09/25 08:52:22;;;;;;;;;8.25;6.25;;;;;27.92;35.14;101702.19;5058989;28;45295;-58
2023/09/25 08:54:51;;;;;;;;;3.25;3.25;;;;;27.97;34.61;101694.34;5050234;28;45448;-59
2023/09/25 08:57:17;;;;;;;;;5.75;5.75;;;;;28.17;33.83;101703.28;5052547;28;46327;-57
2023/09/25 08:59:45;;;;;;;;;5.50;4.50;;;;;28.17;33.74;101709.66;5059219;28;45402;-57
2023/09/25 09:02:12;;;;;;;;;5.00;4.50;;;;;28.14;34.59;101698.06;5058863;28;45346;-57
2023/09/25 09:04:37;;;;;;;;;3.75;3.75;;;;;28.18;34.48;101686.59;5058554;28;45366;-58
2023/09/25 09:07:08;;;;;;;;;4.50;4.50;;;;;28.29;34.04;101702.00;5058597;28;45335;-58
2023/09/25 09:09:33;;;;;;;;;5.00;4.25;;;;;28.30;34.41;101708.38;5059570;27;45367;-58
2023/09/25 09:11:59;;;;;;;;;4.50;4.00;;;;;28.29;33.40;101710.28;5058758;28;45312;-56
2023/09/25 09:14:39;;;;;;;;;4.25;4.25;;;;;28.35;33.49;101717.03;5058803;28;56164;-58
2023/09/25 09:17:06;;;;;;;;;6.00;5.50;;;;;28.41;33.79;101710.88;5058361;28;46906;-57
2023/09/25 09:19:47;;;;;;;;;4.25;4.25;;;;;28.38;33.95;101716.72;5058927;28;45171;-56
2023/09/25 09:22:15;;;;;;;;;7.00;6.00;;;;;28.37;33.70;101715.84;5058998;28;45467;-58
2023/09/25 09:24:43;;;;;;;;;4.00;4.00;;;;;28.42;33.79;101726.38;5058986;28;45946;-58
2023/09/25 09:27:09;;;;;;;;;6.00;5.25;;;;;28.45;34.04;101713.13;5056617;28;47325;-55
2023/09/25 09:29:43;;;;;;;;;5.00;5.00;;;;;28.72;33.83;101725.00;5058123;28;45382;-58
2023/09/25 09:32:09;;;;;;;;;4.25;4.00;;;;;28.87;33.70;101734.44;5058870;28;45276;-58
2023/09/25 09:34:38;;;;;;;;;5.00;5.00;;;;;29.02;33.39;101735.53;5045347;28;45557;-57
2023/09/25 09:37:08;;;;;;;;;5.50;4.50;;;;;29.15;32.51;101741.47;5049852;28;46251;-58
2023/09/25 09:39:34;;;;;;;;;6.25;4.00;;;;;29.23;33.28;101743.38;5058699;28;45327;-56
2023/09/25 09:42:05;;;;;;;;;4.50;4.50;;;;;29.47;33.05;101737.09;5058457;28;45311;-70
2023/09/25 09:44:31;;;;;;;;;3.75;3.75;;;;;29.65;33.24;101724.88;5058340;28;46077;-70
2023/09/25 09:46:56;;;;;;;;;6.25;5.00;;;;;29.75;32.68;101723.84;5058462;28;47031;-69
2023/09/25 09:49:24;;;;;;;;;6.25;5.00;;;;;29.91;32.44;101734.91;5058438;28;45197;-70
2023/09/25 09:51:51;;;;;;;;;7.00;6.00;;;;;29.99;31.79;101730.28;5058886;28;45374;-69
2023/09/25 09:54:20;;;;;;;;;6.00;5.50;;;;;30.07;32.11;101744.09;5058345;28;45454;-69
2023/09/25 09:56:49;;;;;;;;;6.75;6.75;;;;;30.17;32.13;101743.94;5058716;28;45350;-69
2023/09/25 09:59:16;;;;;;;;;5.50;5.50;;;;;30.20;31.91;101732.50;5058122;28;45266;-69
2023/09/25 10:01:45;;;;;;;;;9.00;7.75;;;;;30.18;31.51;101739.25;5058226;28;45291;-70
2023/09/25 10:04:12;;;;;;;;;4.50;4.50;;;;;30.07;32.05;101740.47;5058501;28;45282;-69
2023/09/25 10:06:51;;;;;;;;;8.00;5.50;;;;;29.89;32.17;101743.38;5058388;28;46388;-69
2023/09/25 10:09:18;;;;;;;;;4.50;4.50;;;;;30.05;32.68;101742.53;5058051;28;45350;-70
2023/09/25 10:11:46;;;;;;;;;4.00;3.50;;;;;30.22;31.98;101743.38;5058812;28;45294;-69
2023/09/25 10:14:12;;;;;;;;;5.75;4.25;;;;;30.49;31.71;101751.31;5058491;28;45251;-69
2023/09/25 10:17:01;;;;;;;;;7.00;4.00;;;;;30.31;32.15;101742.34;5057059;28;45270;-69
2023/09/25 10:19:41;;;;;;;;;6.00;4.75;;;;;30.46;31.84;101737.81;5041494;28;45472;-70
2023/09/25 10:22:25;;;;;;;;;5.75;5.75;;;;;30.65;31.71;101731.94;5054786;28;45291;-69
2023/09/25 10:25:12;;;;;;;;;8.00;5.50;;;;;30.87;31.35;101730.31;5056232;28;45457;-70
2023/09/25 10:27:38;;;;;;;;;5.25;5.25;;;;;30.88;31.95;101726.47;5061754;28;45681;-69
2023/09/25 10:30:08;;;;;;;;;6.50;5.00;;;;;30.86;31.11;101727.72;5060761;28;45315;-70
2023/09/25 10:32:37;;;;;;;;;4.00;4.00;;;;;31.01;31.69;101735.09;5061252;28;45307;-69
2023/09/25 10:35:36;;;;;;;;;3.25;3.25;;;;;31.22;31.95;101739.19;5047205;28;45251;-70
2023/09/25 10:38:19;;;;;;;;;4.75;4.75;;;;;31.34;31.11;101729.41;5061324;28;46282;-70
2023/09/25 10:40:48;;;;;;;;;4.25;4.25;;;;;31.31;31.72;101713.16;5061179;28;45450;-69
2023/09/25 10:43:21;;;;;;;;;6.00;4.50;;;;;31.52;31.53;101724.47;5061235;28;45338;-71
2023/09/25 10:45:48;;;;;;;;;4.00;4.00;;;;;31.72;31.31;101722.09;5061010;28;45404;-71
2023/09/25 10:48:14;;;;;;;;;5.00;3.00;;;;;31.80;31.25;101722.91;5061424;28;45318;-69
2023/09/25 10:50:41;;;;;;;;;4.00;4.00;;;;;32.07;31.72;101720.59;5061593;28;45358;-70
2023/09/25 10:53:07;;;;;;;;;4.00;4.00;;;;;32.14;31.41;101710.47;5061468;28;45193;-70
2023/09/25 10:55:33;;;;;;;;;3.00;3.00;;;;;32.05;31.72;101712.47;5061376;28;45287;-69
2023/09/25 10:58:00;;;;;;;;;4.00;2.75;;;;;32.24;31.58;101706.41;5061146;28;47078;-70
2023/09/25 11:00:27;;;;;;;;;8.50;4.50;;;;;32.36;31.47;101712.34;5061166;28;45330;-71
2023/09/25 11:02:52;;;;;;;;;4.75;4.00;;;;;32.43;31.65;101715.22;5060936;28;45261;-70
2023/09/25 11:05:18;;;;;;;;;4.75;3.75;;;;;32.50;31.64;101727.28;5061138;28;45343;-72
2023/09/25 11:07:44;;;;;;;;;4.50;4.50;;;;;32.63;31.60;101728.38;5061393;28;45322;-70
2023/09/25 11:10:13;;;;;;;;;4.00;4.00;;;;;32.71;31.17;101724.69;5059971;28;45418;-69
2023/09/25 11:12:40;;;;;;;;;6.00;5.00;;;;;33.03;31.46;101728.97;5061241;28;45165;-70
2023/09/25 11:15:11;;;;;;;;;2.75;2.75;;;;;33.31;30.84;101740.25;5060947;28;45941;-70
2023/09/25 11:17:37;;;;;;;;;2.25;2.25;;;;;33.48;30.88;101736.19;5050564;28;45429;-71
2023/09/25 11:20:18;;;;;;;;;5.25;4.25;;;;;33.44;30.82;101730.16;5054606;28;45240;-71
2023/09/25 11:22:44;;;;;;;;;2.75;2.75;;;;;33.47;30.79;101741.94;5060899;28;45317;-71
2023/09/25 11:25:16;;;;;;;;;4.50;4.50;;;;;33.53;30.42;101739.22;5060454;28;45299;-71
2023/09/25 11:27:56;;;;;;;;;4.25;2.75;;;;;33.56;30.30;101738.84;5060822;28;45662;-71
2023/09/25 11:30:27;;;;;;;;;3.75;3.75;;;;;33.54;30.40;101738.16;5060569;28;45251;-73
2023/09/25 11:32:53;;;;;;;;;3.50;3.00;;;;;33.46;30.05;101748.56;5060416;28;45691;-69
2023/09/25 11:35:22;;;;;;;;;3.25;3.25;;;;;33.36;30.33;101732.19;5046967;28;45314;-70
2023/09/25 11:38:01;;;;;;;;;5.50;5.50;;;;;33.50;31.20;101747.13;5060348;28;46174;-73
2023/09/25 11:40:28;;;;;;;;;3.25;3.00;;;;;33.35;30.79;101741.56;5060324;28;45419;-71
2023/09/25 11:42:54;;;;;;;;;3.75;2.75;;;;;33.24;30.74;101739.31;5060524;28;45342;-70
2023/09/25 11:45:20;;;;;;;;;5.00;4.00;;;;;33.30;30.37;101727.41;5060503;28;45717;-69
2023/09/25 11:47:46;;;;;;;;;4.50;3.50;;;;;33.38;31.18;101728.16;5060100;28;45613;-70
2023/09/25 11:50:13;;;;;;;;;4.50;3.75;;;;;33.53;30.53;101728.09;5060405;28;45204;-70
2023/09/25 11:52:40;;;;;;;;;5.75;4.50;;;;;33.58;30.73;101722.84;5060550;28;45411;-70
2023/09/25 11:55:09;;;;;;;;;3.50;3.50;;;;;33.58;30.76;101714.50;5060179;28;45527;-70
2023/09/25 11:57:35;;;;;;;;;6.00;4.50;;;;;33.62;30.81;101715.78;5060227;28;46700;-69
2023/09/25 12:00:01;;;;;;;;;3.00;3.00;;;;;33.58;30.39;101711.72;5060272;28;45212;-70
2023/09/25 12:02:28;;;;;;;;;3.00;3.00;;;;;33.69;30.04;101718.63;5058991;28;45814;-70
2023/09/25 12:04:54;;;;;;;;;3.75;3.75;;;;;33.54;29.99;101717.84;5050698;28;45460;-70
2023/09/25 12:07:20;;;;;;;;;3.75;3.75;;;;;33.58;30.30;101716.41;5056219;28;46092;-69
2023/09/25 12:09:47;;;;;;;;;4.75;4.75;;;;;33.56;30.36;101715.72;5050151;28;45292;-70
2023/09/25 12:12:13;;;;;;;;;4.75;3.50;;;;;33.63;29.10;101719.44;5056524;28;45386;-71
2023/09/25 12:14:38;;;;;;;;;6.75;5.75;;;;;34.16;28.43;101713.34;5059550;28;52945;-69
2023/09/25 12:17:03;;;;;;;;;3.75;3.75;;;;;35.51;27.73;101715.66;5059407;28;47387;-70
2023/09/25 12:19:29;;;;;;;;;4.00;4.00;;;;;36.91;26.00;101699.59;5060161;28;45354;-70
2023/09/25 12:21:54;;;;;;;;;3.25;3.25;;;;;38.38;24.75;101702.09;5059566;28;53511;-75
2023/09/25 12:24:19;;;;;;;;;3.75;3.75;;;;;39.66;22.63;101704.88;5059349;28;45253;-74
2023/09/25 12:26:45;;;;;;;;;4.25;3.75;;;;;40.94;21.88;101699.38;5059715;28;46664;-75
2023/09/25 12:29:10;;;;;;;;;5.00;5.00;;;;;42.14;19.99;101704.88;5059934;28;45287;-75
2023/09/25 12:31:35;;;;;;;;;4.00;2.75;;;;;43.40;18.99;101691.72;5059056;28;48554;-75
2023/09/25 12:34:01;;;;;;;;;5.75;4.75;;;;;44.26;16.80;101697.38;5059760;28;45263;-76
2023/09/25 12:36:26;;;;;;;;;4.00;3.50;;;;;45.03;16.94;101691.06;5059579;28;46139;-75
2023/09/25 12:38:52;;;;;;;;;3.00;3.00;;;;;45.74;15.96;101701.78;5059671;28;45280;-75
2023/09/25 12:41:17;;;;;;;;;3.25;3.25;;;;;46.30;15.45;101712.03;5058860;28;45387;-74
2023/09/25 12:43:42;;;;;;;;;7.25;4.25;;;;;46.94;15.13;101710.47;5059573;28;45517;-74
2023/09/25 12:46:08;;;;;;;;;4.25;4.25;;;;;47.65;15.17;101698.75;5058256;28;60801;-74
2023/09/25 12:48:37;;;;;;;;;5.75;4.75;;;;;48.10;14.09;101697.59;5059159;28;45252;-74
2023/09/25 12:51:02;;;;;;;;;6.00;5.00;;;;;48.41;14.19;101695.25;5059096;28;45426;-74
2023/09/25 12:53:28;;;;;;;;;4.75;4.25;;;;;48.70;13.51;101692.41;5059106;28;45587;-74
2023/09/25 12:55:53;;;;;;;;;8.25;4.75;;;;;49.02;13.23;101688.88;5059264;28;46975;-76
2023/09/25 12:58:19;;;;;;;;;7.25;4.75;;;;;49.12;13.55;101692.50;5059467;28;45269;-74
2023/09/25 13:00:44;;;;;;;;;4.25;4.25;;;;;49.36;13.30;101692.41;5059368;28;45375;-74
2023/09/25 13:03:10;;;;;;;;;8.50;5.50;;;;;49.54;12.99;101685.91;5057913;28;45247;-75
2023/09/25 13:05:35;;;;;;;;;4.00;4.00;;;;;49.77;12.85;101689.78;5059305;28;46335;-75
2023/09/25 13:08:01;;;;;;;;;6.75;6.00;;;;;49.91;12.62;101678.47;5059310;28;45376;-76
2023/09/25 13:10:26;;;;;;;;;6.00;3.50;;;;;49.93;12.92;101674.16;5058983;28;45879;-75
2023/09/25 13:12:52;;;;;;;;;6.75;5.00;;;;;49.97;13.15;101677.22;5059612;28;45209;-67
2023/09/25 13:15:20;;;;;;;;;3.00;3.00;;;;;50.24;12.84;101679.34;5059400;28;45343;-77
2023/09/25 13:17:46;;;;;;;;;5.25;3.25;;;;;50.48;12.61;101677.13;5058600;28;45371;-76
2023/09/25 13:20:12;;;;;;;;;4.25;3.75;;;;;50.49;12.27;101675.97;5059126;28;45484;-76
2023/09/25 13:22:38;;;;;;;;;4.50;3.50;;;;;50.55;12.58;101676.75;5058935;28;46657;-76
2023/09/25 13:25:04;;;;;;;;;4.00;4.00;;;;;50.68;12.41;101671.03;5058963;28;46417;-77
2023/09/25 13:27:30;;;;;;;;;6.50;5.50;;;;;50.89;12.24;101679.19;5059126;28;45387;-77
2023/09/25 13:29:55;;;;;;;;;5.00;4.00;;;;;50.98;12.22;101675.25;5058902;28;45168;-75
2023/09/25 13:32:21;;;;;;;;;5.25;5.00;;;;;51.26;11.83;101672.38;5055710;28;45308;-76
2023/09/25 13:34:46;;;;;;;;;3.25;2.00;;;;;51.49;11.93;101674.09;5058715;28;46330;-75
2023/09/25 13:37:11;;;;;;;;;5.00;5.00;;;;;51.72;11.73;101673.00;5056184;28;45295;-76
2023/09/25 13:39:39;;;;;;;;;5.00;4.00;;;;;51.64;11.35;101667.19;5058972;28;45294;-77
2023/09/25 13:42:05;;;;;;;;;2.25;2.25;;;;;51.00;11.81;101666.38;5058432;28;45480;-75
2023/09/25 13:44:30;;;;;;;;;5.25;3.00;;;;;50.08;12.65;101663.63;5058665;28;45696;-76
2023/09/25 13:46:56;;;;;;;;;3.25;3.25;;;;;48.36;13.95;101664.88;5058796;28;45339;-74
2023/09/25 13:49:22;;;;;;;;;4.75;4.75;;;;;47.44;14.71;101652.59;5058996;28;45281;-75
2023/09/25 13:51:48;;;;;;;;;3.25;2.75;;;;;46.40;15.67;101667.75;5059324;28;45901;-75
2023/09/25 13:54:14;;;;;;;;;3.50;3.00;;;;;45.32;16.62;101660.34;5060825;28;46157;-75
2023/09/25 13:56:39;;;;;;;;;4.00;4.00;;;;;44.24;17.88;101645.06;5051448;28;45402;-74
2023/09/25 13:59:05;;;;;;;;;7.50;3.00;;;;;43.22;18.32;101632.81;5062553;28;45436;-74
2023/09/25 14:01:31;;;;;;;;;3.75;3.00;;;;;42.49;19.02;101648.22;5060438;28;45751;-74
2023/09/25 14:03:56;;;;;;;;;4.25;3.00;;;;;41.41;20.90;101642.97;5062044;28;45165;-73
2023/09/25 14:06:23;;;;;;;;;3.25;3.25;;;;;40.45;21.61;101645.41;5061664;28;49104;-73
2023/09/25 14:08:49;;;;;;;;;1.25;1.25;;;;;39.67;23.20;101647.63;5062278;28;45265;-75
2023/09/25 14:11:14;;;;;;;;;3.50;2.75;;;;;38.94;23.38;101643.09;5061694;28;45724;-73
2023/09/25 14:13:39;;;;;;;;;2.00;2.00;;;;;38.48;24.43;101637.13;5061563;28;54988;-72
2023/09/25 14:16:08;;;;;;;;;4.25;2.00;;;;;38.13;24.79;101642.44;5061230;28;54226;-73
2023/09/25 14:18:34;;;;;;;;;3.00;3.00;;;;;37.86;25.02;101645.44;5061982;28;45323;-72
2023/09/25 14:21:00;;;;;;;;;4.75;3.50;;;;;37.48;25.30;101658.66;5061599;28;45369;-73
2023/09/25 14:23:25;;;;;;;;;3.50;3.50;;;;;37.24;25.30;101646.31;5061473;28;45317;-73
2023/09/25 14:25:51;;;;;;;;;3.75;2.50;;;;;36.83;25.66;101646.72;5058314;28;45205;-72
2023/09/25 14:28:16;;;;;;;;;6.00;3.00;;;;;36.50;26.62;101643.13;5061855;28;45472;-72
2023/09/25 14:30:41;;;;;;;;;3.50;3.25;;;;;36.11;27.33;101641.25;5061658;28;45460;-72
2023/09/25 14:33:07;;;;;;;;;3.00;3.00;;;;;35.77;27.57;101628.38;5060102;28;52680;-72
2023/09/25 14:35:32;;;;;;;;;1.50;1.50;;;;;35.70;28.01;101633.09;5061114;28;45244;-72
2023/09/25 14:37:57;;;;;;;;;5.00;3.25;;;;;35.56;28.10;101635.84;5061637;28;45337;-71
2023/09/25 14:40:23;;;;;;;;;6.50;6.00;;;;;35.47;28.37;101626.00;5060888;28;52896;-73
2023/09/25 14:42:49;;;;;;;;;3.75;3.75;;;;;35.35;28.42;101630.47;5060276;28;56948;-74
2023/09/25 14:45:16;;;;;;;;;4.50;3.00;;;;;35.33;28.99;101640.09;5061273;28;45385;-72
2023/09/25 14:47:43;;;;;;;;;2.00;2.00;;;;;35.19;28.88;101640.06;5060963;28;45398;-72
2023/09/25 14:50:09;;;;;;;;;3.50;2.00;;;;;35.14;28.97;101638.94;5061372;28;45368;-72
2023/09/25 14:52:35;;;;;;;;;3.50;3.50;;;;;35.04;29.18;101641.31;5061006;28;45291;-72
2023/09/25 14:55:00;;;;;;;;;2.00;2.00;;;;;34.95;29.32;101640.63;5060907;28;45307;-72
2023/09/25 14:57:25;;;;;;;;;3.50;3.50;;;;;34.88;29.56;101634.13;5060702;28;55763;-72
2023/09/25 14:59:51;;;;;;;;;5.00;4.00;;;;;34.76;29.73;101633.91;5061105;28;45371;-73
2023/09/25 15:02:16;;;;;;;;;3.50;3.50;;;;;34.58;30.09;101643.84;5059988;28;59491;-71
2023/09/25 15:04:42;;;;;;;;;6.75;4.50;;;;;34.47;30.25;101642.47;5061057;28;45236;-73
2023/09/25 15:07:08;;;;;;;;;3.00;3.00;;;;;34.37;30.05;101642.00;5061071;28;45581;-71
2023/09/25 15:09:33;;;;;;;;;4.50;4.50;;;;;34.39;30.36;101649.09;5050567;28;45466;-71
2023/09/25 15:11:59;;;;;;;;;3.75;3.75;;;;;34.48;30.35;101649.78;5055087;28;45388;-70
2023/09/25 15:14:24;;;;;;;;;4.00;4.00;;;;;34.32;30.13;101638.97;5058108;28;45162;-70
2023/09/25 15:16:50;;;;;;;;;3.00;3.00;;;;;34.34;30.95;101631.28;5060788;28;45354;-69
2023/09/25 15:19:16;;;;;;;;;4.75;4.75;;;;;34.38;30.80;101644.56;5060645;28;45846;-69
2023/09/25 15:21:41;;;;;;;;;3.00;3.00;;;;;34.29;30.83;101640.22;5060802;28;46119;-70
2023/09/25 15:24:07;;;;;;;;;2.50;2.50;;;;;34.38;30.83;101638.16;5061304;28;45461;-70
2023/09/25 15:26:32;;;;;;;;;3.50;3.25;;;;;34.40;30.85;101647.16;5060576;28;45272;-70
2023/09/25 15:28:58;;;;;;;;;3.25;2.75;;;;;34.23;31.25;101646.59;5061101;28;45311;-70
2023/09/25 15:31:24;;;;;;;;;0.75;0.75;;;;;34.18;30.68;101638.88;5060396;28;47075;-70
2023/09/25 15:33:50;;;;;;;;;4.25;4.25;;;;;34.19;31.43;101650.84;5054234;28;45338;-70
2023/09/25 15:36:15;;;;;;;;;4.00;3.00;;;;;34.16;31.17;101649.34;5054911;28;45177;-70
2023/09/25 15:38:40;;;;;;;;;3.25;3.25;;;;;34.13;31.41;101646.94;5060487;28;45237;-69
2023/09/25 15:41:05;;;;;;;;;2.75;2.75;;;;;34.16;31.12;101640.97;5059638;28;45403;-70
2023/09/25 15:43:31;;;;;;;;;2.00;2.00;;;;;34.17;31.46;101659.41;5060726;28;45291;-71
2023/09/25 15:45:56;;;;;;;;;5.75;4.00;;;;;34.11;31.69;101651.03;5060467;28;45227;-70
2023/09/25 15:48:21;;;;;;;;;3.00;3.00;;;;;34.05;31.69;101647.09;5060488;28;45166;-70
2023/09/25 15:50:47;;;;;;;;;2.00;2.00;;;;;33.95;32.09;101649.38;5059968;28;56230;-70
2023/09/25 15:53:12;;;;;;;;;3.75;2.75;;;;;33.97;32.20;101663.09;5060660;28;45154;-69
2023/09/25 15:55:37;;;;;;;;;3.25;3.25;;;;;33.93;31.75;101659.00;5060419;28;45635;-70
2023/09/25 15:58:03;;;;;;;;;2.75;2.75;;;;;33.94;32.38;101655.16;5060517;28;45236;-69
2023/09/25 16:00:29;;;;;;;;;2.75;2.75;;;;;33.87;32.12;101651.44;5060115;28;45371;-69
2023/09/25 16:02:54;;;;;;;;;5.25;5.25;;;;;33.89;32.24;101652.09;5058485;28;45900;-70
2023/09/25 16:05:20;;;;;;;;;2.25;2.25;;;;;33.88;32.33;101655.94;5060669;28;45424;-70
2023/09/25 16:07:45;;;;;;;;;5.00;3.75;;;;;33.77;32.46;101635.94;5060037;28;49803;-70
2023/09/25 16:10:13;;;;;;;;;3.00;3.00;;;;;33.86;32.29;101647.78;5059941;28;51940;-70
2023/09/25 16:12:38;;;;;;;;;2.75;2.75;;;;;33.80;32.78;101652.25;5060570;28;45387;-70
2023/09/25 16:15:04;;;;;;;;;3.75;3.75;;;;;33.76;33.21;101661.22;5059369;28;45479;-70
2023/09/25 16:17:30;;;;;;;;;4.75;2.00;;;;;33.74;32.85;101657.75;5059934;28;45477;-70
2023/09/25 16:19:55;;;;;;;;;4.00;2.00;;;;;33.61;32.46;101643.69;5059926;28;45442;-70
2023/09/25 16:22:21;;;;;;;;;4.75;2.25;;;;;33.78;33.04;101656.28;5060068;28;45289;-70
2023/09/25 16:24:46;;;;;;;;;3.00;3.00;;;;;33.71;33.17;101645.06;5059676;28;45268;-69
2023/09/25 16:27:11;;;;;;;;;4.00;4.00;;;;;33.72;33.13;101651.50;5059994;28;45310;-69
2023/09/25 16:29:37;;;;;;;;;5.00;2.00;;;;;33.65;32.99;101657.00;5059664;28;46623;-71
2023/09/25 16:32:02;;;;;;;;;1.50;1.50;;;;;33.61;33.20;101649.25;5047227;28;45482;-63
2023/09/25 16:34:29;;;;;;;;;4.00;3.00;;;;;33.54;32.72;101637.19;5047099;28;45314;-62
2023/09/25 16:36:54;;;;;;;;;2.25;1.75;;;;;33.67;32.99;101665.16;5059015;28;45522;-64
2023/09/25 16:39:20;;;;;;;;;2.00;2.00;;;;;33.67;33.33;101668.81;5058615;28;57769;-63
2023/09/25 16:41:46;;;;;;;;;2.75;2.75;;;;;33.64;33.43;101663.63;5057794;28;45552;-63
2023/09/25 16:44:11;;;;;;;;;1.50;1.50;;;;;33.64;33.36;101668.31;5059141;28;45416;-64
2023/09/25 16:46:37;;;;;;;;;2.50;2.50;;;;;33.59;32.94;101662.50;5058718;28;45377;-62
2023/09/25 16:49:02;;;;;;;;;2.75;2.75;;;;;33.54;33.60;101659.44;5054666;28;46005;-62
2023/09/25 16:51:28;;;;;;;;;1.00;1.00;;;;;33.57;33.02;101664.63;5058373;28;45350;-61
2023/09/25 16:53:53;;;;;;;;;1.00;1.00;;;;;33.46;33.42;101666.00;5059902;28;45325;-61
2023/09/25 16:56:19;;;;;;;;;1.00;1.00;;;;;33.36;33.45;101666.31;5058675;28;57175;-60
2023/09/25 16:58:45;;;;;;;;;1.25;1.25;;;;;33.36;33.25;101671.03;5057038;28;45448;-61
2023/09/25 17:01:10;;;;;;;;;2.50;1.00;;;;;33.23;33.93;101666.19;5058485;28;45456;-59
2023/09/25 17:03:36;;;;;;;;;1.75;1.75;;;;;33.10;33.77;101649.31;5059499;28;45294;-61